Time;durP1;ratioP1;P1;durP2;ratioP2;P2;SDS_P1;SDS_P2;PMS_P1;PMS_P2;Temp;Humidity;BMP_temperature;BMP_pressure;BME280_temperature;BME280_humidity;BME280_pressure;Samples;Min_cycle;Max_cycle;Signal;HPM_P1;HPM_P2
2022/09/01 00:00:48;;;;;;;2.10;1.30;;;13.00;99.90;;;;;;5018530;28;20099;-76
2022/09/01 00:03:15;;;;;;;1.73;0.90;;;13.00;99.90;;;;;;5026052;28;20030;-77
2022/09/01 00:05:41;;;;;;;3.28;1.45;;;12.90;99.90;;;;;;5024069;28;20086;-77
2022/09/01 00:08:07;;;;;;;1.38;1.27;;;13.00;99.90;;;;;;5029994;28;20068;-76
2022/09/01 00:10:32;;;;;;;5.38;1.27;;;13.00;99.90;;;;;;5020721;28;20175;-77
2022/09/01 00:12:58;;;;;;;3.20;1.20;;;13.00;99.90;;;;;;5024732;28;20375;-77
2022/09/01 00:15:24;;;;;;;1.83;0.90;;;13.00;99.90;;;;;;5030586;28;20099;-76
2022/09/01 00:17:50;;;;;;;1.30;0.95;;;13.00;99.90;;;;;;5027094;28;20046;-77
2022/09/01 00:20:15;;;;;;;4.32;1.05;;;12.90;99.90;;;;;;5021267;28;20049;-78
2022/09/01 00:22:41;;;;;;;2.67;1.17;;;13.00;99.90;;;;;;5028251;28;20129;-77
2022/09/01 00:25:07;;;;;;;3.95;1.10;;;12.90;99.90;;;;;;5023164;28;20026;-76
2022/09/01 00:27:33;;;;;;;1.45;1.00;;;12.90;99.90;;;;;;5018613;28;20101;-77
2022/09/01 00:29:59;;;;;;;1.73;1.20;;;12.90;99.90;;;;;;5025333;28;20034;-77
2022/09/01 00:32:25;;;;;;;2.47;1.40;;;12.80;99.90;;;;;;5022396;28;20541;-77
2022/09/01 00:34:51;;;;;;;2.40;1.20;;;12.80;99.90;;;;;;5027231;28;20120;-76
2022/09/01 00:37:16;;;;;;;1.48;1.13;;;12.80;99.90;;;;;;5017426;28;20766;-77
2022/09/01 00:39:42;;;;;;;1.05;1.00;;;12.80;99.90;;;;;;5025534;28;20087;-76
2022/09/01 00:42:08;;;;;;;1.38;0.88;;;12.80;99.90;;;;;;5024246;28;20103;-77
2022/09/01 00:44:35;;;;;;;1.45;1.10;;;12.80;99.90;;;;;;5023246;28;20120;-77
2022/09/01 00:47:01;;;;;;;2.13;1.00;;;12.80;99.90;;;;;;5022570;28;20040;-78
2022/09/01 00:49:34;;;;;;;0.90;0.90;;;12.80;99.90;;;;;;5026063;28;20394;-77
2022/09/01 00:52:20;;;;;;;1.52;1.10;;;12.80;99.90;;;;;;5017591;28;20080;-77
2022/09/01 00:54:51;;;;;;;3.72;1.15;;;12.80;99.90;;;;;;5028547;28;20037;-77
2022/09/01 00:57:17;;;;;;;2.60;1.38;;;12.70;99.90;;;;;;5026095;28;20029;-77
2022/09/01 00:59:48;;;;;;;5.93;1.30;;;12.80;99.90;;;;;;5026884;28;20138;-77
2022/09/01 01:02:14;;;;;;;4.55;1.30;;;12.70;99.90;;;;;;5024044;28;20083;-77
2022/09/01 01:04:42;;;;;;;1.08;0.93;;;12.60;99.90;;;;;;5024502;28;20029;-76
2022/09/01 01:07:09;;;;;;;3.45;1.38;;;12.70;99.90;;;;;;5014456;28;20116;-76
2022/09/01 01:09:39;;;;;;;3.85;1.30;;;12.60;99.90;;;;;;5025029;28;20028;-76
2022/09/01 01:12:07;;;;;;;1.98;1.33;;;12.60;99.90;;;;;;5028210;28;20038;-77
2022/09/01 01:14:35;;;;;;;5.68;1.27;;;12.50;99.90;;;;;;5016052;28;20038;-76
2022/09/01 01:17:01;;;;;;;3.63;1.50;;;12.50;99.90;;;;;;5021100;28;21471;-78
2022/09/01 01:25:21;;;;;;;4.32;1.10;;;12.50;99.90;;;;;;5026605;28;20126;-76
2022/09/01 01:27:47;;;;;;;6.47;1.17;;;12.50;99.90;;;;;;5023979;28;20045;-77
2022/09/01 01:30:13;;;;;;;2.80;1.20;;;12.50;99.90;;;;;;5028210;28;20115;-76
2022/09/01 01:32:44;;;;;;;1.48;1.25;;;12.60;99.90;;;;;;5000414;28;20033;-77
2022/09/01 01:35:13;;;;;;;2.08;1.13;;;12.50;99.90;;;;;;5025661;28;20363;-77
2022/09/01 01:37:45;;;;;;;1.50;1.40;;;12.50;99.90;;;;;;5023121;28;20057;-77
2022/09/01 01:40:16;;;;;;;2.58;1.10;;;12.40;99.90;;;;;;5026166;28;20037;-77
2022/09/01 01:42:47;;;;;;;5.70;1.33;;;12.40;99.90;;;;;;5023650;28;20035;-76
2022/09/01 01:45:18;;;;;;;1.55;1.10;;;12.40;99.90;;;;;;5027487;28;20107;-77
2022/09/01 01:47:55;;;;;;;5.68;1.50;;;12.30;99.90;;;;;;5025725;28;20036;-78
2022/09/01 01:50:24;;;;;;;1.80;1.17;;;12.30;99.90;;;;;;5016133;28;20037;-77
2022/09/01 01:52:49;;;;;;;1.23;1.13;;;12.20;99.90;;;;;;5026265;28;20022;-76
2022/09/01 01:55:18;;;;;;;1.58;1.20;;;12.20;99.90;;;;;;5023376;28;20032;-77
2022/09/01 01:57:48;;;;;;;3.83;1.27;;;12.20;99.90;;;;;;5023261;28;20033;-77
2022/09/01 02:00:18;;;;;;;2.47;1.13;;;12.20;99.90;;;;;;5027231;28;20047;-77
2022/09/01 02:02:51;;;;;;;1.65;1.23;;;12.20;99.90;;;;;;5025240;28;20056;-78
2022/09/01 02:05:37;;;;;;;1.85;1.10;;;12.10;99.90;;;;;;5022363;28;20417;-77
2022/09/01 02:08:06;;;;;;;4.30;1.35;;;12.20;99.90;;;;;;5021245;28;20041;-76
2022/09/01 02:10:49;;;;;;;5.60;1.48;;;12.10;99.90;;;;;;5024784;28;20112;-77
2022/09/01 02:13:18;;;;;;;1.20;1.10;;;12.00;99.90;;;;;;5025948;28;20036;-78
2022/09/01 02:15:49;;;;;;;2.08;1.10;;;12.00;99.90;;;;;;5022216;28;20034;-76
2022/09/01 02:18:18;;;;;;;7.93;1.20;;;12.00;99.90;;;;;;5023375;28;20394;-77
2022/09/01 02:20:48;;;;;;;12.32;1.77;;;12.00;99.90;;;;;;5023450;28;20476;-77
2022/09/01 02:23:16;;;;;;;1.80;1.10;;;12.00;99.90;;;;;;5027435;28;20375;-77
2022/09/01 02:25:44;;;;;;;1.63;1.30;;;11.90;99.90;;;;;;5025149;28;20359;-77
2022/09/01 02:28:15;;;;;;;1.48;1.00;;;12.00;99.90;;;;;;5019148;28;20121;-76
2022/09/01 02:30:43;;;;;;;5.10;1.25;;;11.90;99.90;;;;;;5021703;28;20079;-76
2022/09/01 02:33:17;;;;;;;2.08;1.13;;;12.00;99.90;;;;;;5015452;28;20037;-76
2022/09/01 02:35:44;;;;;;;2.17;1.40;;;11.90;99.90;;;;;;5017186;28;20482;-78
2022/09/01 02:38:12;;;;;;;1.95;1.20;;;12.00;99.90;;;;;;5025183;28;20064;-77
2022/09/01 02:40:39;;;;;;;1.75;1.25;;;12.00;99.90;;;;;;5021890;28;20112;-77
2022/09/01 02:43:05;;;;;;;1.92;1.17;;;11.90;99.90;;;;;;5026861;28;20033;-76
2022/09/01 02:45:31;;;;;;;2.05;1.23;;;11.90;99.90;;;;;;5020264;28;20053;-77
2022/09/01 02:47:57;;;;;;;1.23;1.00;;;11.90;99.90;;;;;;5025131;28;20460;-76
2022/09/01 02:50:25;;;;;;;1.15;0.90;;;11.90;99.90;;;;;;5021293;28;20025;-76
2022/09/01 02:52:52;;;;;;;1.27;1.17;;;11.90;99.90;;;;;;5029487;28;20029;-76
2022/09/01 02:55:20;;;;;;;1.52;1.10;;;11.90;99.90;;;;;;5025051;28;20445;-76
2022/09/01 02:57:48;;;;;;;1.30;1.20;;;11.90;99.90;;;;;;5024397;28;20026;-77
2022/09/01 03:00:27;;;;;;;2.28;1.25;;;12.00;99.90;;;;;;5030653;28;20045;-77
2022/09/01 03:02:57;;;;;;;3.17;1.30;;;12.00;99.90;;;;;;5028463;28;20112;-76
2022/09/01 03:05:25;;;;;;;1.60;1.20;;;12.00;99.90;;;;;;5026311;28;20067;-76
2022/09/01 03:08:14;;;;;;;2.95;1.20;;;11.90;99.90;;;;;;5025489;28;20085;-76
2022/09/01 03:10:42;;;;;;;6.28;1.35;;;11.90;99.90;;;;;;5024655;28;20108;-76
2022/09/01 03:13:11;;;;;;;1.35;1.23;;;11.90;99.90;;;;;;5029342;28;20029;-76
2022/09/01 03:15:37;;;;;;;2.65;1.00;;;11.90;99.90;;;;;;5025751;28;20089;-76
2022/09/01 03:18:04;;;;;;;1.80;1.20;;;12.00;99.90;;;;;;5022213;28;20045;-77
2022/09/01 03:20:32;;;;;;;2.13;1.45;;;11.90;99.90;;;;;;5032625;28;20041;-77
2022/09/01 03:22:59;;;;;;;3.42;1.67;;;12.00;99.90;;;;;;5028044;28;20029;-77
2022/09/01 03:25:25;;;;;;;1.48;0.98;;;12.00;99.90;;;;;;5022599;28;20034;-77
2022/09/01 03:27:51;;;;;;;1.20;1.10;;;12.00;99.90;;;;;;5027104;28;20552;-77
2022/09/01 03:30:19;;;;;;;1.58;1.00;;;12.10;99.90;;;;;;5023451;28;20076;-77
2022/09/01 03:32:45;;;;;;;1.08;0.98;;;12.10;99.90;;;;;;5026847;28;20444;-77
2022/09/01 03:35:11;;;;;;;3.72;1.02;;;12.10;99.90;;;;;;5029685;28;20029;-76
2022/09/01 03:37:38;;;;;;;1.60;1.20;;;12.20;99.90;;;;;;5015446;28;20065;-76
2022/09/01 03:40:07;;;;;;;6.47;1.40;;;12.20;99.90;;;;;;4930328;29;20649;-77
2022/09/01 03:42:35;;;;;;;2.20;1.20;;;12.20;99.90;;;;;;4928683;28;20024;-77
2022/09/01 03:45:08;;;;;;;1.30;1.10;;;12.30;99.90;;;;;;4929287;28;20032;-78
2022/09/01 03:47:39;;;;;;;3.45;1.10;;;12.30;99.90;;;;;;4931144;28;20028;-78
2022/09/01 03:50:10;;;;;;;8.18;1.60;;;12.30;99.90;;;;;;4934663;28;20040;-77
2022/09/01 03:52:38;;;;;;;2.08;1.35;;;12.30;99.90;;;;;;4939386;28;20395;-77
2022/09/01 03:55:04;;;;;;;1.42;1.13;;;12.30;99.90;;;;;;4959775;28;20055;-78
2022/09/01 03:57:29;;;;;;;2.80;1.20;;;12.30;99.90;;;;;;4925161;28;20025;-77
2022/09/01 03:59:55;;;;;;;5.95;2.55;;;12.20;99.90;;;;;;4960736;28;20035;-76
2022/09/01 04:02:21;;;;;;;1.95;1.00;;;12.20;99.90;;;;;;4924369;28;20028;-76
2022/09/01 04:04:47;;;;;;;1.52;1.23;;;12.20;99.90;;;;;;4962760;28;20491;-76
2022/09/01 04:07:13;;;;;;;3.85;1.08;;;12.10;99.90;;;;;;4932632;29;20072;-77
2022/09/01 04:09:38;;;;;;;1.73;0.93;;;12.20;99.90;;;;;;4939239;28;20025;-77
2022/09/01 04:12:14;;;;;;;3.13;1.30;;;12.10;99.90;;;;;;4968218;28;20093;-77
2022/09/01 04:14:40;;;;;;;3.30;1.52;;;12.20;99.90;;;;;;4930766;29;20038;-76
2022/09/01 04:19:49;;;;;;;3.00;1.15;;;12.20;99.90;;;;;;4936604;28;20139;-77
2022/09/01 04:22:16;;;;;;;2.55;1.40;;;12.30;99.90;;;;;;4927555;28;20114;-77
2022/09/01 04:24:44;;;;;;;1.30;1.20;;;12.30;99.90;;;;;;4941015;28;20028;-77
2022/09/01 04:27:10;;;;;;;3.92;1.52;;;12.30;99.90;;;;;;4928347;28;20055;-77
2022/09/01 04:29:35;;;;;;;7.88;1.27;;;12.30;99.90;;;;;;4961481;28;20022;-77
2022/09/01 04:32:06;;;;;;;0.98;0.90;;;12.30;99.90;;;;;;4930278;28;20031;-76
2022/09/01 04:34:36;;;;;;;2.60;1.10;;;12.30;99.90;;;;;;4922549;28;20032;-78
2022/09/01 04:37:07;;;;;;;2.15;1.35;;;12.40;99.90;;;;;;4925333;28;20032;-77
2022/09/01 04:39:33;;;;;;;3.17;1.55;;;12.40;99.90;;;;;;4936198;29;20108;-77
2022/09/01 04:41:59;;;;;;;1.10;1.00;;;12.40;99.90;;;;;;4929063;28;20035;-78
2022/09/01 04:44:25;;;;;;;1.90;1.08;;;12.50;99.90;;;;;;4930900;28;20027;-77
2022/09/01 04:46:50;;;;;;;3.38;1.20;;;12.50;99.90;;;;;;4924329;29;20035;-78
2022/09/01 04:49:20;;;;;;;3.63;1.60;;;12.50;99.90;;;;;;4934602;28;20027;-77
2022/09/01 04:51:49;;;;;;;3.92;1.25;;;12.50;99.90;;;;;;4932644;29;20050;-77
2022/09/01 04:54:16;;;;;;;3.40;1.45;;;12.50;99.90;;;;;;4922643;28;20396;-76
2022/09/01 04:56:45;;;;;;;4.88;1.80;;;12.60;99.90;;;;;;4912702;28;20032;-76
2022/09/01 04:59:12;;;;;;;2.83;1.40;;;12.60;99.90;;;;;;4918094;29;20391;-76
2022/09/01 05:01:42;;;;;;;3.08;1.13;;;12.50;99.90;;;;;;4924176;28;20146;-77
2022/09/01 05:04:32;;;;;;;1.52;1.17;;;12.50;99.90;;;;;;4925535;29;20103;-76
2022/09/01 05:06:59;;;;;;;3.13;1.33;;;12.50;99.90;;;;;;4914349;29;20052;-77
2022/09/01 05:09:28;;;;;;;4.47;1.45;;;12.40;99.90;;;;;;4929568;29;20035;-77
2022/09/01 05:11:53;;;;;;;5.93;1.63;;;12.40;99.90;;;;;;4966782;28;20361;-76
2022/09/01 05:14:20;;;;;;;4.65;1.63;;;12.40;99.90;;;;;;4977633;28;20121;-76
2022/09/01 05:16:46;;;;;;;2.17;1.58;;;12.30;99.90;;;;;;5008618;28;20026;-78
2022/09/01 05:19:16;;;;;;;3.75;1.58;;;12.30;99.90;;;;;;4987388;28;20055;-76
2022/09/01 05:21:44;;;;;;;6.05;1.88;;;12.30;99.90;;;;;;4954653;28;20056;-76
2022/09/01 05:24:14;;;;;;;4.60;1.65;;;12.30;99.90;;;;;;4950464;28;20121;-76
2022/09/01 05:26:42;;;;;;;3.17;1.70;;;12.30;99.90;;;;;;4935167;28;20035;-77
2022/09/01 05:29:16;;;;;;;3.50;1.83;;;12.30;99.90;;;;;;4932799;29;20106;-76
2022/09/01 05:31:44;;;;;;;3.78;1.90;;;12.40;99.90;;;;;;4952868;28;20113;-76
2022/09/01 05:34:09;;;;;;;13.25;1.98;;;12.40;99.90;;;;;;4989391;28;20036;-78
2022/09/01 05:36:38;;;;;;;3.58;1.70;;;12.40;99.90;;;;;;4933116;28;20527;-77
2022/09/01 05:39:05;;;;;;;1.98;1.40;;;12.50;99.90;;;;;;5002818;28;20277;-77
2022/09/01 05:41:34;;;;;;;2.38;1.35;;;12.50;99.90;;;;;;5022229;28;20026;-77
2022/09/01 05:44:06;;;;;;;3.58;1.63;;;12.50;99.90;;;;;;5027716;28;20032;-79
2022/09/01 05:46:34;;;;;;;3.53;1.90;;;12.60;99.90;;;;;;5026945;28;20029;-77
2022/09/01 05:49:00;;;;;;;4.45;1.80;;;12.70;99.90;;;;;;5022677;28;20084;-78
2022/09/01 05:51:29;;;;;;;5.13;1.83;;;12.70;99.90;;;;;;5010470;28;20474;-77
2022/09/01 05:53:58;;;;;;;6.75;2.20;;;12.80;99.90;;;;;;5019519;28;20453;-77
2022/09/01 05:56:27;;;;;;;8.27;2.00;;;12.90;99.90;;;;;;5006801;28;20057;-77
2022/09/01 05:58:54;;;;;;;10.25;2.63;;;13.00;99.90;;;;;;5025260;28;20041;-77
2022/09/01 06:01:25;;;;;;;4.15;2.10;;;13.00;99.90;;;;;;5024623;28;20029;-77
2022/09/01 06:03:53;;;;;;;6.38;1.92;;;13.10;99.90;;;;;;5006162;28;20033;-77
2022/09/01 06:06:21;;;;;;;6.68;2.22;;;13.20;99.90;;;;;;5019941;28;20029;-79
2022/09/01 06:08:48;;;;;;;16.48;2.35;;;13.20;99.90;;;;;;5022467;28;20060;-77
2022/09/01 06:11:16;;;;;;;5.32;2.05;;;13.30;99.90;;;;;;5016511;28;20123;-79
2022/09/01 06:13:43;;;;;;;5.13;1.98;;;13.30;99.90;;;;;;5026630;28;20026;-78
2022/09/01 06:16:10;;;;;;;6.45;2.00;;;13.40;99.90;;;;;;5021939;28;20033;-78
2022/09/01 06:18:42;;;;;;;4.70;2.28;;;13.40;99.90;;;;;;5015133;28;20021;-78
2022/09/01 06:21:10;;;;;;;6.88;2.35;;;13.50;99.90;;;;;;5024554;28;20437;-77
2022/09/01 06:23:36;;;;;;;4.28;2.10;;;13.50;99.90;;;;;;5026424;28;20030;-78
2022/09/01 06:26:02;;;;;;;4.00;2.40;;;13.50;99.90;;;;;;5025728;28;20109;-78
2022/09/01 06:28:28;;;;;;;2.70;1.90;;;13.50;99.90;;;;;;5023416;28;20034;-79
2022/09/01 06:30:56;;;;;;;6.70;2.22;;;13.50;99.90;;;;;;5027902;28;20386;-78
2022/09/01 06:33:24;;;;;;;5.32;2.05;;;13.60;99.90;;;;;;5025590;28;20052;-78
2022/09/01 06:35:52;;;;;;;4.40;2.00;;;13.60;99.90;;;;;;5023692;28;20025;-78
2022/09/01 06:38:18;;;;;;;4.65;2.08;;;13.60;99.90;;;;;;5021291;28;20045;-78
2022/09/01 06:40:44;;;;;;;6.22;1.90;;;13.70;99.90;;;;;;5019720;28;20037;-79
2022/09/01 06:43:12;;;;;;;4.85;1.85;;;13.80;99.90;;;;;;5023245;28;20044;-78
2022/09/01 06:45:48;;;;;;;6.10;2.15;;;13.80;99.90;;;;;;5026214;28;20378;-78
2022/09/01 06:48:14;;;;;;;;;;;13.80;99.90;;;;;;5019698;28;20030;-78
2022/09/01 06:50:41;;;;;;;4.47;1.58;;;13.90;99.90;;;;;;5027342;28;19954;-78
2022/09/01 06:53:10;;;;;;;3.05;2.20;;;13.90;99.90;;;;;;5022657;28;20071;-78
2022/09/01 06:55:40;;;;;;;5.40;2.15;;;14.00;99.90;;;;;;5024560;28;20033;-78
2022/09/01 06:58:08;;;;;;;3.25;1.77;;;14.10;99.90;;;;;;5021280;28;20059;-78
2022/09/01 07:00:38;;;;;;;3.42;2.35;;;14.10;99.90;;;;;;5023925;28;20056;-78
2022/09/01 07:03:08;;;;;;;3.45;1.73;;;14.10;99.90;;;;;;5020702;28;20025;-78
2022/09/01 07:05:38;;;;;;;7.75;2.03;;;14.20;99.90;;;;;;5026827;28;20045;-78
2022/09/01 07:08:08;;;;;;;5.07;2.00;;;14.20;99.90;;;;;;5014941;28;20025;-78
2022/09/01 07:10:46;;;;;;;3.78;2.13;;;14.30;99.90;;;;;;5002564;28;20132;-78
2022/09/01 07:13:17;;;;;;;4.25;1.60;;;14.30;99.90;;;;;;5020547;28;20112;-78
2022/09/01 07:15:43;;;;;;;11.88;2.20;;;14.30;99.90;;;;;;5021632;28;20022;-80
2022/09/01 07:18:11;;;;;;;2.47;1.70;;;14.40;99.90;;;;;;5015466;28;20046;-78
2022/09/01 07:20:40;;;;;;;3.15;1.50;;;14.50;99.90;;;;;;5009644;28;20202;-78
2022/09/01 07:23:07;;;;;;;3.80;1.75;;;14.50;99.90;;;;;;5019213;28;20111;-79
2022/09/01 07:25:40;;;;;;;7.45;1.92;;;14.50;99.90;;;;;;5017188;28;20112;-78
2022/09/01 07:28:07;;;;;;;2.75;1.58;;;14.60;99.90;;;;;;5027440;28;20374;-78
2022/09/01 07:30:39;;;;;;;4.70;2.05;;;14.60;99.90;;;;;;5027692;28;20025;-78
2022/09/01 07:33:10;;;;;;;3.58;1.70;;;14.70;99.90;;;;;;5021580;28;20118;-78
2022/09/01 07:35:37;;;;;;;4.00;1.77;;;14.60;99.90;;;;;;5028092;28;20022;-78
2022/09/01 07:38:05;;;;;;;4.20;1.98;;;14.70;99.90;;;;;;5030086;28;20136;-78
2022/09/01 07:40:30;;;;;;;2.70;1.83;;;14.70;99.90;;;;;;5024403;28;20494;-79
2022/09/01 07:42:56;;;;;;;6.53;1.98;;;14.70;99.90;;;;;;5029408;28;20112;-78
2022/09/01 07:45:24;;;;;;;4.50;1.77;;;14.80;99.90;;;;;;5025284;28;20502;-78
2022/09/01 07:47:50;;;;;;;13.48;1.85;;;14.80;99.90;;;;;;5023782;28;20037;-78
2022/09/01 07:50:17;;;;;;;6.70;2.67;;;14.90;99.90;;;;;;5029222;28;20072;-79
2022/09/01 07:52:43;;;;;;;3.83;2.00;;;14.90;99.90;;;;;;5023908;28;20033;-80
2022/09/01 07:55:13;;;;;;;2.97;1.30;;;15.00;99.90;;;;;;5022031;28;20033;-78
2022/09/01 07:57:41;;;;;;;2.08;1.38;;;15.10;99.90;;;;;;5025870;28;20018;-78
2022/09/01 08:00:10;;;;;;;3.00;1.33;;;15.20;99.90;;;;;;5023958;28;20045;-79
2022/09/01 08:02:37;;;;;;;4.05;1.30;;;15.30;99.90;;;;;;5024347;28;20025;-78
2022/09/01 08:05:10;;;;;;;3.97;1.45;;;15.40;99.90;;;;;;5028454;28;20105;-79
2022/09/01 08:07:36;;;;;;;6.00;1.92;;;15.40;99.90;;;;;;5028919;28;20018;-78
2022/09/01 08:10:07;;;;;;;19.25;2.08;;;15.50;99.90;;;;;;5022855;28;20021;-79
2022/09/01 08:12:34;;;;;;;9.07;1.70;;;15.50;99.90;;;;;;5023797;28;20032;-79
2022/09/01 08:15:05;;;;;;;4.25;1.52;;;15.60;99.90;;;;;;5021608;28;20021;-80
2022/09/01 08:17:31;;;;;;;3.53;1.70;;;15.70;99.90;;;;;;5021081;28;20037;-80
2022/09/01 08:19:56;;;;;;;14.10;1.85;;;15.70;99.90;;;;;;5018905;28;20057;-80
2022/09/01 08:22:24;;;;;;;11.35;2.20;;;15.70;99.90;;;;;;5022411;28;20620;-78
2022/09/01 08:24:50;;;;;;;9.82;1.90;;;15.80;99.90;;;;;;5024381;28;20189;-78
2022/09/01 08:27:16;;;;;;;10.05;1.88;;;15.90;99.90;;;;;;5022417;28;20037;-79
2022/09/01 08:29:42;;;;;;;5.93;1.98;;;15.90;99.90;;;;;;5021725;28;20422;-78
2022/09/01 08:32:07;;;;;;;6.97;1.70;;;16.00;99.90;;;;;;5023029;28;20112;-78
2022/09/01 08:34:34;;;;;;;4.38;1.58;;;16.10;99.90;;;;;;5022079;28;20133;-78
2022/09/01 08:36:59;;;;;;;6.75;1.55;;;16.10;99.90;;;;;;5020817;28;20394;-78
2022/09/01 08:39:25;;;;;;;5.63;1.50;;;16.10;99.90;;;;;;5020862;28;20041;-79
2022/09/01 08:42:02;;;;;;;3.60;1.45;;;16.20;99.90;;;;;;5020577;28;20026;-78
2022/09/01 08:44:50;;;;;;;9.02;1.83;;;16.20;99.90;;;;;;5022889;28;20030;-79
2022/09/01 08:47:18;;;;;;;8.45;1.70;;;16.30;99.90;;;;;;5022249;28;20113;-80
2022/09/01 08:49:45;;;;;;;5.75;1.50;;;16.40;99.90;;;;;;5021433;28;20029;-79
2022/09/01 08:52:30;;;;;;;16.95;1.42;;;16.40;99.90;;;;;;5025458;28;20021;-78
2022/09/01 08:55:24;;;;;;;2.42;1.35;;;16.40;99.90;;;;;;5023270;28;20386;-78
2022/09/01 08:57:51;;;;;;;7.50;1.52;;;16.50;99.90;;;;;;5023499;28;20055;-78
2022/09/01 09:00:21;;;;;;;4.57;1.33;;;16.60;99.90;;;;;;5028856;28;20049;-79
2022/09/01 09:03:09;;;;;;;4.78;1.90;;;16.80;99.90;;;;;;5022996;28;20087;-79
2022/09/01 09:06:23;;;;;;;9.43;1.58;;;16.80;99.90;;;;;;5027861;28;20022;-78
2022/09/01 09:09:04;;;;;;;4.95;1.25;;;16.90;99.90;;;;;;4968008;28;20122;-79
2022/09/01 09:12:11;;;;;;;2.70;1.00;;;16.90;99.90;;;;;;4975238;28;20128;-78
2022/09/01 09:15:09;;;;;;;4.88;1.38;;;17.00;99.90;;;;;;5014691;28;20124;-78
2022/09/01 09:17:42;;;;;;;4.28;1.08;;;17.20;99.90;;;;;;5019685;28;20036;-79
2022/09/01 09:20:08;;;;;;;8.23;1.45;;;17.20;99.90;;;;;;5023809;28;20446;-78
2022/09/01 09:22:33;;;;;;;9.75;2.85;;;17.30;99.90;;;;;;5028598;28;21074;-78
2022/09/01 09:25:17;;;;;;;6.38;1.77;;;17.30;99.90;;;;;;5026915;28;20033;-79
2022/09/01 09:27:45;;;;;;;10.90;1.75;;;17.40;99.90;;;;;;5026083;28;20093;-79
2022/09/01 09:30:12;;;;;;;3.22;1.33;;;17.50;99.90;;;;;;5010434;28;20034;-79
2022/09/01 09:32:50;;;;;;;7.38;1.40;;;17.50;99.90;;;;;;5025671;28;20548;-78
2022/09/01 09:35:18;;;;;;;2.55;1.17;;;17.60;99.90;;;;;;5019342;28;20500;-81
2022/09/01 09:37:43;;;;;;;1.63;0.70;;;17.60;99.90;;;;;;5022597;28;20053;-78
2022/09/01 09:40:10;;;;;;;7.63;1.40;;;17.70;99.90;;;;;;5022023;28;20029;-78
2022/09/01 09:42:41;;;;;;;5.03;1.13;;;17.80;99.90;;;;;;5017603;28;20033;-78
2022/09/01 09:45:24;;;;;;;5.93;1.77;;;17.90;99.90;;;;;;5012863;28;20029;-78
2022/09/01 09:47:52;;;;;;;5.00;1.05;;;18.00;99.90;;;;;;4978827;28;20025;-77
2022/09/01 09:50:23;;;;;;;6.28;1.00;;;18.10;99.90;;;;;;5011032;28;20031;-77
2022/09/01 09:52:51;;;;;;;2.15;0.90;;;18.10;99.90;;;;;;5006834;28;20470;-78
2022/09/01 09:55:28;;;;;;;5.85;1.08;;;18.20;99.90;;;;;;5019876;28;20025;-78
2022/09/01 09:57:58;;;;;;;8.60;1.20;;;18.30;99.90;;;;;;4989336;28;20042;-79
2022/09/01 10:00:32;;;;;;;4.50;1.00;;;18.40;99.90;;;;;;5020198;28;20052;-78
2022/09/01 10:03:06;;;;;;;5.57;1.70;;;18.40;99.90;;;;;;4985310;28;20489;-79
2022/09/01 10:05:35;;;;;;;7.97;1.20;;;18.50;99.90;;;;;;5002100;28;20104;-78
2022/09/01 10:08:00;;;;;;;6.03;1.33;;;18.50;99.90;;;;;;4996716;28;20030;-79
2022/09/01 10:10:37;;;;;;;3.28;0.90;;;18.60;99.90;;;;;;5000476;28;20029;-78
2022/09/01 10:13:06;;;;;;;3.42;0.98;;;18.60;99.90;;;;;;4999442;28;20382;-79
2022/09/01 10:15:32;;;;;;;7.60;1.45;;;18.70;99.90;;;;;;5028252;28;20493;-78
2022/09/01 10:18:21;;;;;;;1.80;0.90;;;18.70;99.90;;;;;;5020565;28;20470;-79
2022/09/01 10:20:59;;;;;;;4.70;0.80;;;18.70;99.90;;;;;;4996708;28;20041;-78
2022/09/01 10:23:27;;;;;;;2.05;0.90;;;18.80;99.90;;;;;;5004596;28;20054;-78
2022/09/01 10:26:08;;;;;;;4.13;1.10;;;18.80;99.90;;;;;;4994577;28;20472;-78
2022/09/01 10:28:42;;;;;;;8.65;0.60;;;18.90;99.90;;;;;;5000834;28;20029;-79
2022/09/01 10:31:09;;;;;;;4.78;1.00;;;19.00;99.90;;;;;;5024455;28;20030;-77
2022/09/01 10:33:35;;;;;;;4.40;1.00;;;19.00;99.90;;;;;;5013735;28;20033;-78
2022/09/01 10:36:00;;;;;;;3.97;0.57;;;18.90;99.90;;;;;;5007490;28;20499;-79
2022/09/01 10:38:28;;;;;;;3.42;0.98;;;18.80;99.90;;;;;;5018306;28;20577;-78
2022/09/01 10:41:07;;;;;;;3.42;0.80;;;18.80;99.90;;;;;;5019746;28;20045;-78
2022/09/01 10:43:37;;;;;;;1.35;0.60;;;18.70;98.70;;;;;;5021613;28;20064;-77
2022/09/01 10:46:25;;;;;;;4.60;0.88;;;18.60;99.40;;;;;;5019949;28;20030;-78
2022/09/01 10:48:53;;;;;;;1.30;0.65;;;18.50;99.90;;;;;;5003116;28;20121;-78
2022/09/01 10:51:18;;;;;;;5.20;0.80;;;18.50;99.90;;;;;;5026064;28;20076;-78
2022/09/01 10:53:48;;;;;;;6.53;0.70;;;18.60;99.00;;;;;;5017762;28;20482;-80
2022/09/01 10:56:16;;;;;;;4.32;0.85;;;18.70;95.80;;;;;;5023253;28;20075;-79
2022/09/01 10:58:59;;;;;;;4.15;1.00;;;18.70;92.90;;;;;;5018547;28;20432;-78
2022/09/01 11:02:17;;;;;;;1.00;0.60;;;18.70;93.40;;;;;;5020751;28;20112;-78
2022/09/01 11:04:46;;;;;;;9.77;0.80;;;18.70;92.80;;;;;;5008609;28;20474;-79
2022/09/01 11:07:17;;;;;;;1.63;0.70;;;18.60;92.20;;;;;;5023319;28;20041;-78
2022/09/01 11:10:08;;;;;;;6.65;0.70;;;18.60;91.40;;;;;;5021224;28;20128;-78
2022/09/01 11:13:05;;;;;;;5.30;0.55;;;18.60;84.90;;;;;;5021704;28;20040;-78
2022/09/01 11:15:41;;;;;;;1.58;0.90;;;18.70;86.80;;;;;;5023956;28;20390;-78
2022/09/01 11:18:28;;;;;;;1.73;0.70;;;18.70;84.60;;;;;;5025476;28;20402;-77
2022/09/01 11:20:54;;;;;;;5.50;0.80;;;18.70;85.70;;;;;;5024616;28;20095;-78
2022/09/01 11:23:31;;;;;;;8.32;0.90;;;18.70;86.10;;;;;;5021612;28;21221;-78
2022/09/01 11:26:17;;;;;;;1.88;0.75;;;18.70;84.90;;;;;;5017009;28;20054;-78
2022/09/01 11:28:43;;;;;;;1.33;0.60;;;18.60;86.00;;;;;;5027819;28;20032;-78
2022/09/01 11:31:20;;;;;;;3.53;0.70;;;18.60;87.30;;;;;;5028104;28;20045;-78
2022/09/01 11:34:02;;;;;;;5.50;0.93;;;18.60;83.10;;;;;;5010246;28;20079;-78
2022/09/01 11:36:34;;;;;;;0.98;0.65;;;18.70;84.70;;;;;;5030056;28;20029;-79
2022/09/01 11:39:25;;;;;;;1.75;0.85;;;18.70;81.70;;;;;;4960612;28;20055;-79
2022/09/01 11:42:15;;;;;;;2.92;0.85;;;18.90;81.90;;;;;;4931966;29;20090;-77
2022/09/01 11:45:02;;;;;;;2.85;0.85;;;19.00;80.40;;;;;;4928419;28;20038;-78
2022/09/01 11:47:37;;;;;;;1.85;0.70;;;19.20;80.00;;;;;;4939773;28;20036;-78
2022/09/01 11:50:16;;;;;;;1.58;0.80;;;19.30;80.10;;;;;;4959924;28;20036;-78
2022/09/01 11:52:42;;;;;;;1.38;0.80;;;19.30;78.10;;;;;;4935923;29;20091;-77
2022/09/01 11:55:09;;;;;;;7.80;1.00;;;19.40;76.40;;;;;;5010361;28;20031;-78
2022/09/01 11:57:39;;;;;;;5.57;1.05;;;19.50;75.50;;;;;;4960918;28;20425;-78
2022/09/01 12:00:13;;;;;;;5.60;0.77;;;19.70;74.60;;;;;;4942405;28;20038;-78
2022/09/01 12:02:45;;;;;;;2.13;0.75;;;19.90;69.20;;;;;;4941033;28;20099;-79
2022/09/01 12:05:26;;;;;;;6.63;0.93;;;20.10;69.00;;;;;;4930920;28;20028;-78
2022/09/01 12:07:52;;;;;;;0.98;0.73;;;20.20;62.90;;;;;;4925878;28;20058;-78
2022/09/01 12:10:25;;;;;;;1.63;0.80;;;20.20;61.40;;;;;;4932075;28;20094;-78
2022/09/01 12:13:06;;;;;;;6.90;0.95;;;20.20;61.50;;;;;;4929496;29;20032;-78
2022/09/01 12:15:33;;;;;;;0.80;0.63;;;20.10;62.70;;;;;;5002710;28;20027;-79
2022/09/01 12:18:26;;;;;;;2.35;0.70;;;20.00;62.20;;;;;;4936096;29;20039;-80
2022/09/01 12:20:54;;;;;;;5.03;0.55;;;19.90;64.00;;;;;;4930303;29;20090;-78
2022/09/01 12:23:30;;;;;;;4.90;0.82;;;19.90;64.70;;;;;;4933899;28;20310;-78
2022/09/01 12:25:59;;;;;;;7.53;0.68;;;19.90;65.30;;;;;;4920658;29;20058;-79
2022/09/01 12:28:29;;;;;;;7.97;0.80;;;19.80;65.90;;;;;;4929288;28;20031;-78
2022/09/01 12:30:57;;;;;;;1.65;0.50;;;19.70;66.40;;;;;;4925730;29;20067;-78
2022/09/01 12:33:24;;;;;;;0.65;0.50;;;19.80;66.10;;;;;;4922160;29;20139;-78
2022/09/01 12:35:51;;;;;;;5.05;0.63;;;19.80;65.80;;;;;;4932300;28;20039;-78
2022/09/01 12:38:19;;;;;;;1.48;0.70;;;19.80;65.10;;;;;;4970132;28;20080;-79
2022/09/01 12:40:54;;;;;;;1.55;0.50;;;19.80;66.80;;;;;;5019388;28;20091;-79
2022/09/01 12:43:31;;;;;;;0.63;0.57;;;19.70;65.60;;;;;;5021407;28;20478;-78
2022/09/01 12:46:00;;;;;;;2.33;0.60;;;19.80;66.00;;;;;;5028120;28;20026;-80
2022/09/01 12:48:37;;;;;;;3.58;0.52;;;19.80;65.50;;;;;;5025882;28;20029;-78
2022/09/01 12:51:23;;;;;;;3.80;0.55;;;19.70;64.40;;;;;;5027576;28;20021;-79
2022/09/01 12:54:02;;;;;;;0.40;0.40;;;19.80;67.60;;;;;;5022674;28;20028;-78
2022/09/01 12:56:32;;;;;;;0.80;0.50;;;19.80;67.40;;;;;;5025459;28;20030;-77
2022/09/01 12:59:21;;;;;;;3.50;0.50;;;19.80;64.30;;;;;;5023137;28;20036;-82
2022/09/01 13:01:46;;;;;;;1.52;0.60;;;19.80;64.20;;;;;;5024085;28;20052;-78
2022/09/01 13:04:29;;;;;;;5.68;0.55;;;19.80;63.00;;;;;;5020504;28;20486;-78
2022/09/01 13:07:05;;;;;;;0.60;0.60;;;19.80;61.80;;;;;;5024253;28;20025;-78
2022/09/01 13:09:31;;;;;;;4.75;0.82;;;19.90;61.50;;;;;;5019761;28;20064;-78
2022/09/01 13:12:18;;;;;;;4.10;0.52;;;19.80;61.30;;;;;;5020906;28;20057;-77